Hlavní strana
METAR-TAF:

METAR-TAF

Letiště :

Liberia, Kostarika

zeměpisná šířka: 10-37N, zeměpisná délka: 085-26W, výška: 80 m

Aktuální stav počasí

Zpráva byla vytvořena před 1 hodinou a 6 minutami, v 12:00 UTC
Východoseverovýchodní vítr 2 kt
Teplota 25°C
Vlhkost vzduchu 94%
Tlak 1010 hPa
Viditelnost 10 km a více
Skoro jasno ve výšce 3000 ft
Oblačno až skoro zataženo ve výšce 25000 ft
mlha v blízkosti

METAR: MRLB 261200Z 06002KT 9999 VCFG FEW030 BKN250 25/24 A2982

Čas: 07:06 (13:06 UTC)

Předpověď počasí

Zpráva byla vytvořena před 2 hodinami a 6 minutami, v 11:00 UTC
Předpověď platná od 26 v 12 UTC do 27 v 12 UTC
Západoseverozápadní vítr 6 kt
Viditelnost 10 km a více
Polojasno ve výšce 4000 ft
Dočasný
od 26 v 21 UTC do 26 v 24 UTC
Viditelnost: 5000 m
Polojasno ve výšce 1500 ft, Cumulonimbus.
Oblačno až skoro zataženo ve výšce 3000 ft
bouřka, déšť

TAF: MRLB 261100Z 2612/2712 29006KT 9999 SCT040 TX35/2619Z TN23/2711Z TEMPO 2621/2624 5000 TSRA SCT015CB BKN030

Stav a předpovědi počasí z více než 4 000 letišť (zprávy METAR a TAF).

Červené a žluté tečky na mapě představují dostupné meteorologické stanice.

Když kurzor umístíte na tečku, zobrazí se název stanice.

Pak kliknutím zobrazíte stav a předpověď počasí.

Chcete-li změnit mapu, kliknutím na zelené tlačítko se znaménkem +mapu přiblížíte, kliknutím na zelené tlačítko se znaménkem – mapu oddálíte a kliknutím na zelené šipky přejdete na sousední mapy.


METAR-TAF: